Terminal Aerodrome Forecast
Issued by NWS Binghamton, NY

Home | Current Version | Previous Version | Text Only | Print | Product List | Glossary On
Versions: 1 2 3 4 5 6 7 8 9 10 11 12 13 14
290
FTUS41 KBGM 221736 AAB
TAFBGM
TAF AMD
KBGM 221736Z 2218/2318 VRB03KT P6SM SCT050 BKN100
     FM222300 18004KT P6SM BKN030 BKN100
      TEMPO 2308/2312 5SM BR BKN020
     FM231500 22008KT P6SM BKN030=

USA.gov is the U.S. government's official web portal to all federal, state and local government web resources and services.